sensor_id;sensor_type;location;lat;lon;timestamp;pressure;altitude;pressure_sealevel;temperature;humidity
43119;BME280;28729;49.838;8.650;2022-08-19T00:02:57;99370.69;;;21.66;80.82
43119;BME280;28729;49.838;8.650;2022-08-19T00:06:59;99376.75;;;21.68;80.45
43119;BME280;28729;49.838;8.650;2022-08-19T00:11:02;99384.84;;;21.70;80.78
43119;BME280;28729;49.838;8.650;2022-08-19T00:15:06;99373.28;;;21.71;80.49
43119;BME280;28729;49.838;8.650;2022-08-19T00:19:13;99358.94;;;21.73;80.45
43119;BME280;28729;49.838;8.650;2022-08-19T00:23:14;99361.59;;;21.69;81.17
43119;BME280;28729;49.838;8.650;2022-08-19T00:27:17;99347.91;;;21.68;81.20
43119;BME280;28729;49.838;8.650;2022-08-19T00:31:27;99337.03;;;21.66;81.22
43119;BME280;28729;49.838;8.650;2022-08-19T00:35:29;99332.56;;;21.65;81.66
43119;BME280;28729;49.838;8.650;2022-08-19T00:39:31;99341.34;;;21.64;81.72
43119;BME280;28729;49.838;8.650;2022-08-19T00:43:33;99333.91;;;21.59;81.95
43119;BME280;28729;49.838;8.650;2022-08-19T00:47:41;99318.25;;;21.58;81.36
43119;BME280;28729;49.838;8.650;2022-08-19T00:52:12;99320.56;;;21.56;81.67
43119;BME280;28729;49.838;8.650;2022-08-19T00:56:16;99298.63;;;21.58;80.67
43119;BME280;28729;49.838;8.650;2022-08-19T01:00:19;99304.91;;;21.55;80.49
43119;BME280;28729;49.838;8.650;2022-08-19T01:04:42;99314.00;;;21.52;80.81
43119;BME280;28729;49.838;8.650;2022-08-19T01:08:56;99323.56;;;21.51;79.33
43119;BME280;28729;49.838;8.650;2022-08-19T01:13:16;99328.66;;;21.57;78.79
43119;BME280;28729;49.838;8.650;2022-08-19T01:17:19;99315.59;;;21.61;78.18
43119;BME280;28729;49.838;8.650;2022-08-19T01:21:48;99318.22;;;21.67;78.36
43119;BME280;28729;49.838;8.650;2022-08-19T01:25:54;99319.88;;;21.68;77.91
43119;BME280;28729;49.838;8.650;2022-08-19T01:30:03;99310.63;;;21.67;78.17
43119;BME280;28729;49.838;8.650;2022-08-19T01:34:37;99307.69;;;21.64;78.40
43119;BME280;28729;49.838;8.650;2022-08-19T01:38:42;99322.38;;;21.60;78.57
43119;BME280;28729;49.838;8.650;2022-08-19T01:42:44;99325.03;;;21.57;78.79
43119;BME280;28729;49.838;8.650;2022-08-19T01:46:47;99327.84;;;21.57;78.85
43119;BME280;28729;49.838;8.650;2022-08-19T01:50:49;99330.63;;;21.57;79.46
43119;BME280;28729;49.838;8.650;2022-08-19T01:54:51;99327.34;;;21.55;78.69
43119;BME280;28729;49.838;8.650;2022-08-19T01:59:00;99329.66;;;21.53;79.94
43119;BME280;28729;49.838;8.650;2022-08-19T02:03:03;99332.44;;;21.53;79.68
43119;BME280;28729;49.838;8.650;2022-08-19T02:07:06;99336.75;;;21.50;80.18
43119;BME280;28729;49.838;8.650;2022-08-19T02:11:24;99341.72;;;21.45;80.94
43119;BME280;28729;49.838;8.650;2022-08-19T02:15:28;99349.13;;;21.41;80.94
43119;BME280;28729;49.838;8.650;2022-08-19T02:19:29;99342.56;;;21.36;80.99
43119;BME280;28729;49.838;8.650;2022-08-19T02:23:33;99347.81;;;21.29;81.42
43119;BME280;28729;49.838;8.650;2022-08-19T02:27:36;99347.81;;;21.21;81.75
43119;BME280;28729;49.838;8.650;2022-08-19T02:31:53;99353.47;;;21.12;81.88
43119;BME280;28729;49.838;8.650;2022-08-19T02:35:55;99346.03;;;21.07;82.21
43119;BME280;28729;49.838;8.650;2022-08-19T02:40:02;99340.59;;;21.02;82.59
43119;BME280;28729;49.838;8.650;2022-08-19T02:44:12;99337.31;;;20.91;82.53
43119;BME280;28729;49.838;8.650;2022-08-19T02:48:33;99361.22;;;20.80;83.29
43119;BME280;28729;49.838;8.650;2022-08-19T02:52:56;99347.84;;;20.68;83.47
43119;BME280;28729;49.838;8.650;2022-08-19T02:56:58;99337.63;;;20.55;84.14
43119;BME280;28729;49.838;8.650;2022-08-19T03:01:01;99330.19;;;20.42;84.47
43119;BME280;28729;49.838;8.650;2022-08-19T03:05:08;99343.34;;;20.33;85.25
43119;BME280;28729;49.838;8.650;2022-08-19T03:09:11;99353.03;;;20.26;85.59
43119;BME280;28729;49.838;8.650;2022-08-19T03:13:17;99354.50;;;20.24;86.07
43119;BME280;28729;49.838;8.650;2022-08-19T03:17:19;99353.19;;;20.21;86.48
43119;BME280;28729;49.838;8.650;2022-08-19T03:21:23;99360.25;;;20.19;87.14
43119;BME280;28729;49.838;8.650;2022-08-19T03:25:26;99355.81;;;20.18;87.49
43119;BME280;28729;49.838;8.650;2022-08-19T03:29:29;99353.53;;;20.20;87.82
43119;BME280;28729;49.838;8.650;2022-08-19T03:33:33;99349.72;;;20.24;87.55
43119;BME280;28729;49.838;8.650;2022-08-19T03:37:36;99349.06;;;20.27;88.14
43119;BME280;28729;49.838;8.650;2022-08-19T03:41:43;99341.50;;;20.28;88.32
43119;BME280;28729;49.838;8.650;2022-08-19T03:45:48;99346.28;;;20.27;88.92
43119;BME280;28729;49.838;8.650;2022-08-19T03:49:51;99361.25;;;20.23;88.76
43119;BME280;28729;49.838;8.650;2022-08-19T03:53:54;99364.06;;;20.23;88.58
43119;BME280;28729;49.838;8.650;2022-08-19T03:57:56;99365.34;;;20.25;88.85
43119;BME280;28729;49.838;8.650;2022-08-19T04:02:08;99367.34;;;20.25;88.47
43119;BME280;28729;49.838;8.650;2022-08-19T04:06:15;99369.63;;;20.14;88.95
43119;BME280;28729;49.838;8.650;2022-08-19T04:10:17;99374.19;;;20.10;89.19
43119;BME280;28729;49.838;8.650;2022-08-19T04:14:21;99378.97;;;20.10;89.49
43119;BME280;28729;49.838;8.650;2022-08-19T04:18:23;99366.63;;;20.11;89.98
43119;BME280;28729;49.838;8.650;2022-08-19T04:22:25;99362.06;;;20.15;89.46
43119;BME280;28729;49.838;8.650;2022-08-19T04:26:32;99367.00;;;20.18;89.82
43119;BME280;28729;49.838;8.650;2022-08-19T04:30:45;99364.84;;;20.15;89.90
43119;BME280;28729;49.838;8.650;2022-08-19T04:34:48;99362.38;;;20.13;89.67
43119;BME280;28729;49.838;8.650;2022-08-19T04:39:15;99364.16;;;20.09;90.08
43119;BME280;28729;49.838;8.650;2022-08-19T04:43:17;99364.66;;;20.02;90.74
43119;BME280;28729;49.838;8.650;2022-08-19T04:47:19;99370.88;;;19.99;90.54
43119;BME280;28729;49.838;8.650;2022-08-19T04:51:43;99372.34;;;19.97;90.80
43119;BME280;28729;49.838;8.650;2022-08-19T04:55:45;99378.78;;;19.97;90.63
43119;BME280;28729;49.838;8.650;2022-08-19T04:59:48;99367.59;;;19.97;91.12
43119;BME280;28729;49.838;8.650;2022-08-19T05:03:50;99377.81;;;20.02;90.84
43119;BME280;28729;49.838;8.650;2022-08-19T05:07:51;99382.41;;;20.07;90.54
43119;BME280;28729;49.838;8.650;2022-08-19T05:11:53;99392.13;;;20.09;90.26
43119;BME280;28729;49.838;8.650;2022-08-19T05:15:57;99387.75;;;20.17;90.43
43119;BME280;28729;49.838;8.650;2022-08-19T05:20:00;99381.66;;;20.23;90.14
43119;BME280;28729;49.838;8.650;2022-08-19T05:24:22;99380.69;;;20.37;90.44
43119;BME280;28729;49.838;8.650;2022-08-19T05:28:24;99391.78;;;20.51;90.07
43119;BME280;28729;49.838;8.650;2022-08-19T05:32:25;99393.31;;;20.65;89.69
43119;BME280;28729;49.838;8.650;2022-08-19T05:36:32;99406.16;;;20.75;89.60
43119;BME280;28729;49.838;8.650;2022-08-19T05:40:35;99401.06;;;20.77;88.68
43119;BME280;28729;49.838;8.650;2022-08-19T05:44:42;99394.31;;;20.78;87.95
43119;BME280;28729;49.838;8.650;2022-08-19T05:48:45;99403.22;;;20.80;87.51
43119;BME280;28729;49.838;8.650;2022-08-19T05:52:47;99405.34;;;20.83;86.88
43119;BME280;28729;49.838;8.650;2022-08-19T05:56:52;99408.81;;;20.89;86.67
43119;BME280;28729;49.838;8.650;2022-08-19T06:00:54;99423.16;;;20.96;86.06
43119;BME280;28729;49.838;8.650;2022-08-19T06:04:56;99421.34;;;21.00;85.59
43119;BME280;28729;49.838;8.650;2022-08-19T06:08:58;99433.84;;;21.11;85.44
43119;BME280;28729;49.838;8.650;2022-08-19T06:13:00;99437.66;;;21.24;84.73
43119;BME280;28729;49.838;8.650;2022-08-19T06:17:02;99446.53;;;21.35;83.98
43119;BME280;28729;49.838;8.650;2022-08-19T06:21:07;99449.72;;;21.51;83.03
43119;BME280;28729;49.838;8.650;2022-08-19T06:25:10;99457.91;;;21.65;82.27
43119;BME280;28729;49.838;8.650;2022-08-19T06:29:17;99460.03;;;21.76;81.54
43119;BME280;28729;49.838;8.650;2022-08-19T06:33:29;99468.78;;;21.92;80.49
43119;BME280;28729;49.838;8.650;2022-08-19T06:37:37;99469.38;;;22.06;79.10
43119;BME280;28729;49.838;8.650;2022-08-19T06:41:48;99458.13;;;22.15;78.78
43119;BME280;28729;49.838;8.650;2022-08-19T06:45:55;99468.53;;;22.23;78.06
43119;BME280;28729;49.838;8.650;2022-08-19T06:50:02;99476.25;;;22.35;77.64
43119;BME280;28729;49.838;8.650;2022-08-19T06:54:32;99486.19;;;22.62;76.50
43119;BME280;28729;49.838;8.650;2022-08-19T06:58:57;99480.25;;;22.93;75.35
43119;BME280;28729;49.838;8.650;2022-08-19T07:02:59;99483.78;;;23.11;74.72
43119;BME280;28729;49.838;8.650;2022-08-19T07:07:12;99486.66;;;23.24;74.12
43119;BME280;28729;49.838;8.650;2022-08-19T07:11:22;99491.94;;;23.25;73.79
43119;BME280;28729;49.838;8.650;2022-08-19T07:15:24;99496.19;;;23.31;73.39
43119;BME280;28729;49.838;8.650;2022-08-19T07:19:26;99482.94;;;23.32;73.17
43119;BME280;28729;49.838;8.650;2022-08-19T07:23:32;99488.22;;;23.33;71.66
43119;BME280;28729;49.838;8.650;2022-08-19T07:27:33;99484.72;;;23.36;71.40
43119;BME280;28729;49.838;8.650;2022-08-19T07:31:35;99485.09;;;23.56;70.26
43119;BME280;28729;49.838;8.650;2022-08-19T07:35:38;99491.66;;;23.81;69.79
43119;BME280;28729;49.838;8.650;2022-08-19T07:39:40;99487.25;;;24.04;68.63
43119;BME280;28729;49.838;8.650;2022-08-19T07:43:42;99485.06;;;24.22;66.84
43119;BME280;28729;49.838;8.650;2022-08-19T07:47:44;99490.03;;;24.38;66.61
43119;BME280;28729;49.838;8.650;2022-08-19T07:52:06;99499.81;;;24.65;65.02
43119;BME280;28729;49.838;8.650;2022-08-19T07:56:09;99485.97;;;24.72;64.81
43119;BME280;28729;49.838;8.650;2022-08-19T08:00:13;99487.59;;;24.73;63.88
43119;BME280;28729;49.838;8.650;2022-08-19T08:04:34;99489.81;;;24.92;61.92
43119;BME280;28729;49.838;8.650;2022-08-19T08:09:04;99479.81;;;25.07;62.16
43119;BME280;28729;49.838;8.650;2022-08-19T08:13:12;99481.91;;;25.10;61.59
43119;BME280;28729;49.838;8.650;2022-08-19T08:17:16;99488.50;;;25.01;61.32
43119;BME280;28729;49.838;8.650;2022-08-19T08:21:38;99497.53;;;25.07;61.65
43119;BME280;28729;49.838;8.650;2022-08-19T08:25:48;99491.09;;;25.19;60.81
43119;BME280;28729;49.838;8.650;2022-08-19T08:29:50;99482.59;;;25.43;59.55
43119;BME280;28729;49.838;8.650;2022-08-19T08:33:52;99475.47;;;25.62;57.83
43119;BME280;28729;49.838;8.650;2022-08-19T08:37:58;99471.81;;;25.61;57.82
43119;BME280;28729;49.838;8.650;2022-08-19T08:42:26;99488.94;;;25.97;57.58
43119;BME280;28729;49.838;8.650;2022-08-19T08:46:54;99477.81;;;26.48;55.39
43119;BME280;28729;49.838;8.650;2022-08-19T08:51:07;99477.25;;;26.90;53.41
43119;BME280;28729;49.838;8.650;2022-08-19T08:55:14;99485.97;;;27.00;52.22
43119;BME280;28729;49.838;8.650;2022-08-19T08:59:21;99480.41;;;27.20;51.02
43119;BME280;28729;49.838;8.650;2022-08-19T09:03:27;99476.06;;;26.91;51.86
43119;BME280;28729;49.838;8.650;2022-08-19T09:07:53;99478.34;;;26.85;52.10
43119;BME280;28729;49.838;8.650;2022-08-19T09:16:29;99472.78;;;26.89;51.80
43119;BME280;28729;49.838;8.650;2022-08-19T09:20:31;99473.69;;;26.93;49.90
43119;BME280;28729;49.838;8.650;2022-08-19T09:24:33;99486.09;;;26.88;50.34
43119;BME280;28729;49.838;8.650;2022-08-19T09:28:37;99476.84;;;27.07;49.66
43119;BME280;28729;49.838;8.650;2022-08-19T09:32:39;99480.94;;;27.25;49.37
43119;BME280;28729;49.838;8.650;2022-08-19T09:36:43;99477.28;;;27.25;49.67
43119;BME280;28729;49.838;8.650;2022-08-19T09:40:45;99471.69;;;27.13;49.62
43119;BME280;28729;49.838;8.650;2022-08-19T09:44:46;99481.59;;;27.03;49.76
43119;BME280;28729;49.838;8.650;2022-08-19T09:48:53;99471.78;;;26.81;49.59
43119;BME280;28729;49.838;8.650;2022-08-19T09:52:56;99470.56;;;27.33;49.60
43119;BME280;28729;49.838;8.650;2022-08-19T09:56:59;99468.13;;;27.90;47.18
43119;BME280;28729;49.838;8.650;2022-08-19T10:01:08;99474.53;;;27.67;47.54
43119;BME280;28729;49.838;8.650;2022-08-19T10:05:10;99470.28;;;27.38;48.54
43119;BME280;28729;49.838;8.650;2022-08-19T10:09:31;99471.41;;;27.34;48.80
43119;BME280;28729;49.838;8.650;2022-08-19T10:13:40;99482.03;;;27.21;48.59
43119;BME280;28729;49.838;8.650;2022-08-19T10:17:42;99480.25;;;26.97;49.28
43119;BME280;28729;49.838;8.650;2022-08-19T10:21:55;99472.53;;;27.29;49.11
43119;BME280;28729;49.838;8.650;2022-08-19T10:26:01;99464.41;;;27.86;47.22
43119;BME280;28729;49.838;8.650;2022-08-19T10:30:03;99469.00;;;28.36;46.33
43119;BME280;28729;49.838;8.650;2022-08-19T10:34:10;99460.91;;;28.84;45.36
43119;BME280;28729;49.838;8.650;2022-08-19T10:38:27;99476.94;;;29.26;43.25
43119;BME280;28729;49.838;8.650;2022-08-19T10:42:34;99475.41;;;29.33;43.42
43119;BME280;28729;49.838;8.650;2022-08-19T10:46:38;99460.19;;;29.18;43.37
43119;BME280;28729;49.838;8.650;2022-08-19T10:50:48;99451.78;;;29.55;42.79
43119;BME280;28729;49.838;8.650;2022-08-19T10:55:23;99452.19;;;29.87;41.46
43119;BME280;28729;49.838;8.650;2022-08-19T10:59:44;99439.41;;;29.70;41.24
43119;BME280;28729;49.838;8.650;2022-08-19T11:03:45;99445.19;;;29.17;41.42
43119;BME280;28729;49.838;8.650;2022-08-19T11:07:47;99447.22;;;29.17;42.00
43119;BME280;28729;49.838;8.650;2022-08-19T11:11:53;99427.53;;;29.61;40.34
43119;BME280;28729;49.838;8.650;2022-08-19T11:15:57;99418.03;;;29.80;39.84
43119;BME280;28729;49.838;8.650;2022-08-19T11:20:06;99412.13;;;29.96;39.34
43119;BME280;28729;49.838;8.650;2022-08-19T11:24:11;99411.25;;;29.92;38.47
43119;BME280;28729;49.838;8.650;2022-08-19T11:28:13;99403.69;;;29.66;38.30
43119;BME280;28729;49.838;8.650;2022-08-19T11:32:14;99398.63;;;29.89;37.83
43119;BME280;28729;49.838;8.650;2022-08-19T11:36:18;99387.56;;;30.18;37.82
43119;BME280;28729;49.838;8.650;2022-08-19T11:40:20;99401.44;;;30.23;36.67
43119;BME280;28729;49.838;8.650;2022-08-19T11:44:22;99397.94;;;30.40;37.14
43119;BME280;28729;49.838;8.650;2022-08-19T11:48:24;99389.88;;;31.12;36.23
43119;BME280;28729;49.838;8.650;2022-08-19T11:52:27;99394.34;;;31.09;36.00
43119;BME280;28729;49.838;8.650;2022-08-19T11:56:28;99392.13;;;30.26;35.90
43119;BME280;28729;49.838;8.650;2022-08-19T12:00:30;99388.88;;;30.28;36.35
43119;BME280;28729;49.838;8.650;2022-08-19T12:04:31;99393.91;;;30.04;36.44
43119;BME280;28729;49.838;8.650;2022-08-19T12:08:33;99387.16;;;30.19;36.59
43119;BME280;28729;49.838;8.650;2022-08-19T12:12:36;99393.19;;;31.28;34.11
43119;BME280;28729;49.838;8.650;2022-08-19T12:16:44;99383.31;;;32.38;33.60
43119;BME280;28729;49.838;8.650;2022-08-19T12:20:53;99382.38;;;33.20;32.22
43119;BME280;28729;49.838;8.650;2022-08-19T12:24:58;99382.06;;;32.36;32.04
43119;BME280;28729;49.838;8.650;2022-08-19T12:28:59;99376.97;;;31.32;34.53
43119;BME280;28729;49.838;8.650;2022-08-19T12:33:01;99375.50;;;31.82;33.06
43119;BME280;28729;49.838;8.650;2022-08-19T12:37:04;99372.56;;;31.46;34.20
43119;BME280;28729;49.838;8.650;2022-08-19T12:41:09;99377.22;;;32.47;31.85
43119;BME280;28729;49.838;8.650;2022-08-19T12:45:12;99373.00;;;33.23;30.64
43119;BME280;28729;49.838;8.650;2022-08-19T12:49:15;99376.69;;;33.13;30.79
43119;BME280;28729;49.838;8.650;2022-08-19T12:53:37;99369.59;;;33.50;29.68
43119;BME280;28729;49.838;8.650;2022-08-19T12:57:40;99372.88;;;33.52;28.93
43119;BME280;28729;49.838;8.650;2022-08-19T13:01:43;99387.16;;;33.45;28.88
43119;BME280;28729;49.838;8.650;2022-08-19T13:05:45;99376.81;;;32.45;29.61
43119;BME280;28729;49.838;8.650;2022-08-19T13:09:46;99384.50;;;31.94;30.22
43119;BME280;28729;49.838;8.650;2022-08-19T13:13:49;99384.81;;;31.64;30.99
43119;BME280;28729;49.838;8.650;2022-08-19T13:17:53;99390.19;;;32.84;29.13
43119;BME280;28729;49.838;8.650;2022-08-19T13:21:55;99401.63;;;32.27;29.91
43119;BME280;28729;49.838;8.650;2022-08-19T13:26:03;99395.66;;;31.26;30.48
43119;BME280;28729;49.838;8.650;2022-08-19T13:30:09;99392.66;;;32.39;30.06
43119;BME280;28729;49.838;8.650;2022-08-19T13:34:34;99386.38;;;34.14;27.07
43119;BME280;28729;49.838;8.650;2022-08-19T13:38:36;99387.06;;;35.80;25.62
43119;BME280;28729;49.838;8.650;2022-08-19T13:42:40;99384.53;;;37.67;23.63
43119;BME280;28729;49.838;8.650;2022-08-19T13:46:41;99382.78;;;38.42;23.32
43119;BME280;28729;49.838;8.650;2022-08-19T13:50:46;99382.75;;;38.10;23.45
43119;BME280;28729;49.838;8.650;2022-08-19T13:54:50;99394.16;;;36.97;23.78
43119;BME280;28729;49.838;8.650;2022-08-19T13:58:52;99382.78;;;37.13;23.86
43119;BME280;28729;49.838;8.650;2022-08-19T14:02:59;99396.72;;;37.55;22.14
43119;BME280;28729;49.838;8.650;2022-08-19T14:07:01;99391.84;;;38.57;21.49
43119;BME280;28729;49.838;8.650;2022-08-19T14:11:02;99384.75;;;38.29;21.30
43119;BME280;28729;49.838;8.650;2022-08-19T14:15:09;99391.66;;;37.79;21.50
43119;BME280;28729;49.838;8.650;2022-08-19T14:19:11;99378.69;;;36.44;22.87
43119;BME280;28729;49.838;8.650;2022-08-19T14:23:13;99375.22;;;35.48;23.33
43119;BME280;28729;49.838;8.650;2022-08-19T14:27:15;99360.25;;;34.61;24.25
43119;BME280;28729;49.838;8.650;2022-08-19T14:31:17;99337.03;;;34.07;24.27
43119;BME280;28729;49.838;8.650;2022-08-19T14:35:21;99330.75;;;33.70;25.47
43119;BME280;28729;49.838;8.650;2022-08-19T14:39:23;99323.38;;;33.69;25.43
43119;BME280;28729;49.838;8.650;2022-08-19T14:43:25;99341.56;;;33.20;26.09
43119;BME280;28729;49.838;8.650;2022-08-19T14:47:26;99334.78;;;32.78;26.38
43119;BME280;28729;49.838;8.650;2022-08-19T14:51:28;99331.19;;;32.52;26.96
43119;BME280;28729;49.838;8.650;2022-08-19T14:55:31;99327.06;;;32.67;27.20
43119;BME280;28729;49.838;8.650;2022-08-19T14:59:34;99325.75;;;32.97;26.77
43119;BME280;28729;49.838;8.650;2022-08-19T15:03:36;99338.06;;;32.73;26.73
43119;BME280;28729;49.838;8.650;2022-08-19T15:07:39;99324.28;;;32.25;26.88
43119;BME280;28729;49.838;8.650;2022-08-19T15:11:42;99322.66;;;31.95;27.11
43119;BME280;28729;49.838;8.650;2022-08-19T15:15:43;99336.44;;;31.71;27.62
43119;BME280;28729;49.838;8.650;2022-08-19T15:19:46;99344.47;;;31.41;28.26
43119;BME280;28729;49.838;8.650;2022-08-19T15:23:49;99332.22;;;31.33;28.43
43119;BME280;28729;49.838;8.650;2022-08-19T15:27:51;99340.38;;;31.35;28.16
43119;BME280;28729;49.838;8.650;2022-08-19T15:31:54;99344.00;;;31.31;27.86
43119;BME280;28729;49.838;8.650;2022-08-19T15:35:59;99341.09;;;31.10;28.28
43119;BME280;28729;49.838;8.650;2022-08-19T15:40:00;99342.69;;;31.04;28.04
43119;BME280;28729;49.838;8.650;2022-08-19T15:44:04;99342.25;;;30.98;28.07
43119;BME280;28729;49.838;8.650;2022-08-19T15:48:09;99341.06;;;31.03;27.92
43119;BME280;28729;49.838;8.650;2022-08-19T15:52:10;99331.31;;;31.11;28.26
43119;BME280;28729;49.838;8.650;2022-08-19T15:56:13;99332.97;;;31.12;27.80
43119;BME280;28729;49.838;8.650;2022-08-19T16:00:15;99348.38;;;31.00;27.75
43119;BME280;28729;49.838;8.650;2022-08-19T16:04:36;99334.84;;;30.79;28.06
43119;BME280;28729;49.838;8.650;2022-08-19T16:09:00;99335.19;;;30.74;27.94
43119;BME280;28729;49.838;8.650;2022-08-19T16:13:04;99330.28;;;30.64;28.46
43119;BME280;28729;49.838;8.650;2022-08-19T16:17:06;99335.56;;;30.69;28.57
43119;BME280;28729;49.838;8.650;2022-08-19T16:21:13;99335.19;;;30.71;28.58
43119;BME280;28729;49.838;8.650;2022-08-19T16:25:17;99339.16;;;30.59;28.65
43119;BME280;28729;49.838;8.650;2022-08-19T16:29:19;99328.56;;;30.52;28.74
43119;BME280;28729;49.838;8.650;2022-08-19T16:33:39;99343.50;;;30.38;28.94
43119;BME280;28729;49.838;8.650;2022-08-19T16:37:41;99339.78;;;30.31;28.78
43119;BME280;28729;49.838;8.650;2022-08-19T16:41:44;99346.22;;;30.24;29.28
43119;BME280;28729;49.838;8.650;2022-08-19T16:45:53;99351.09;;;30.24;29.86
43119;BME280;28729;49.838;8.650;2022-08-19T16:49:55;99353.81;;;30.13;29.15
43119;BME280;28729;49.838;8.650;2022-08-19T16:53:56;99367.78;;;29.88;30.18
43119;BME280;28729;49.838;8.650;2022-08-19T16:57:58;99356.47;;;29.91;29.95
43119;BME280;28729;49.838;8.650;2022-08-19T17:02:04;99362.19;;;29.95;29.78
43119;BME280;28729;49.838;8.650;2022-08-19T17:06:13;99372.28;;;29.92;30.35
43119;BME280;28729;49.838;8.650;2022-08-19T17:10:21;99362.59;;;29.93;30.50
43119;BME280;28729;49.838;8.650;2022-08-19T17:14:22;99375.09;;;29.89;30.53
43119;BME280;28729;49.838;8.650;2022-08-19T17:18:24;99365.72;;;29.81;30.72
43119;BME280;28729;49.838;8.650;2022-08-19T17:22:31;99373.75;;;29.72;30.81
43119;BME280;28729;49.838;8.650;2022-08-19T17:26:36;99375.16;;;29.59;30.82
43119;BME280;28729;49.838;8.650;2022-08-19T17:30:37;99376.72;;;29.52;31.25
43119;BME280;28729;49.838;8.650;2022-08-19T17:34:39;99377.50;;;29.49;31.31
43119;BME280;28729;49.838;8.650;2022-08-19T17:38:41;99379.06;;;29.43;31.20
43119;BME280;28729;49.838;8.650;2022-08-19T17:42:44;99376.84;;;29.29;31.66
43119;BME280;28729;49.838;8.650;2022-08-19T17:46:45;99378.75;;;29.18;32.01
43119;BME280;28729;49.838;8.650;2022-08-19T17:50:47;99382.25;;;29.08;32.35
43119;BME280;28729;49.838;8.650;2022-08-19T17:54:49;99387.00;;;29.00;32.49
43119;BME280;28729;49.838;8.650;2022-08-19T17:58:51;99393.34;;;28.90;32.41
43119;BME280;28729;49.838;8.650;2022-08-19T18:03:03;99394.69;;;28.73;32.32
43119;BME280;28729;49.838;8.650;2022-08-19T18:07:07;99387.31;;;28.65;32.30
43119;BME280;28729;49.838;8.650;2022-08-19T18:11:10;99397.25;;;28.55;32.45
43119;BME280;28729;49.838;8.650;2022-08-19T18:15:12;99401.81;;;28.37;32.97
43119;BME280;28729;49.838;8.650;2022-08-19T18:19:14;99407.50;;;28.14;32.83
43119;BME280;28729;49.838;8.650;2022-08-19T18:23:15;99411.13;;;27.91;33.00
43119;BME280;28729;49.838;8.650;2022-08-19T18:27:37;99413.97;;;27.72;33.44
43119;BME280;28729;49.838;8.650;2022-08-19T18:31:39;99416.44;;;27.54;33.53
43119;BME280;28729;49.838;8.650;2022-08-19T18:35:46;99414.84;;;27.34;33.50
43119;BME280;28729;49.838;8.650;2022-08-19T18:39:48;99423.28;;;27.14;33.59
43119;BME280;28729;49.838;8.650;2022-08-19T18:44:09;99422.06;;;26.96;33.65
43119;BME280;28729;49.838;8.650;2022-08-19T18:48:29;99433.69;;;26.75;33.42
43119;BME280;28729;49.838;8.650;2022-08-19T18:52:49;99437.66;;;26.54;34.11
43119;BME280;28729;49.838;8.650;2022-08-19T18:56:52;99441.63;;;26.37;34.25
43119;BME280;28729;49.838;8.650;2022-08-19T19:00:57;99453.75;;;26.22;34.28
43119;BME280;28729;49.838;8.650;2022-08-19T19:04:59;99447.28;;;26.06;34.93
43119;BME280;28729;49.838;8.650;2022-08-19T19:09:13;99459.34;;;25.90;35.36
43119;BME280;28729;49.838;8.650;2022-08-19T19:13:15;99471.28;;;25.72;35.70
43119;BME280;28729;49.838;8.650;2022-08-19T19:17:17;99472.53;;;25.58;35.77
43119;BME280;28729;49.838;8.650;2022-08-19T19:21:24;99481.75;;;25.43;36.57
43119;BME280;28729;49.838;8.650;2022-08-19T19:25:26;99480.38;;;25.24;36.86
43119;BME280;28729;49.838;8.650;2022-08-19T19:29:48;99497.19;;;25.09;37.08
43119;BME280;28729;49.838;8.650;2022-08-19T19:33:54;99491.22;;;24.98;37.40
43119;BME280;28729;49.838;8.650;2022-08-19T19:37:56;99499.47;;;24.91;37.45
43119;BME280;28729;49.838;8.650;2022-08-19T19:41:58;99504.16;;;24.87;37.66
43119;BME280;28729;49.838;8.650;2022-08-19T19:46:00;99518.59;;;24.85;37.73
43119;BME280;28729;49.838;8.650;2022-08-19T19:50:02;99520.00;;;24.79;37.66
43119;BME280;28729;49.838;8.650;2022-08-19T19:54:15;99522.94;;;24.70;37.99
43119;BME280;28729;49.838;8.650;2022-08-19T19:58:28;99522.22;;;24.61;38.82
43119;BME280;28729;49.838;8.650;2022-08-19T20:02:30;99530.31;;;24.50;38.70
43119;BME280;28729;49.838;8.650;2022-08-19T20:06:32;99543.19;;;24.39;39.27
43119;BME280;28729;49.838;8.650;2022-08-19T20:10:39;99551.25;;;24.28;39.57
43119;BME280;28729;49.838;8.650;2022-08-19T20:14:41;99555.34;;;24.19;39.69
43119;BME280;28729;49.838;8.650;2022-08-19T20:18:43;99555.06;;;24.11;39.89
43119;BME280;28729;49.838;8.650;2022-08-19T20:22:45;99563.59;;;24.03;40.33
43119;BME280;28729;49.838;8.650;2022-08-19T20:26:48;99565.53;;;23.90;40.61
43119;BME280;28729;49.838;8.650;2022-08-19T20:30:54;99571.59;;;23.80;40.86
43119;BME280;28729;49.838;8.650;2022-08-19T20:34:59;99571.66;;;23.71;41.75
43119;BME280;28729;49.838;8.650;2022-08-19T20:39:03;99577.44;;;23.75;41.76
43119;BME280;28729;49.838;8.650;2022-08-19T20:43:10;99572.97;;;23.74;41.83
43119;BME280;28729;49.838;8.650;2022-08-19T20:47:13;99579.75;;;23.73;42.54
43119;BME280;28729;49.838;8.650;2022-08-19T20:51:15;99576.94;;;23.73;42.98
43119;BME280;28729;49.838;8.650;2022-08-19T20:55:17;99569.84;;;23.66;42.69
43119;BME280;28729;49.838;8.650;2022-08-19T20:59:20;99582.19;;;23.53;43.08
43119;BME280;28729;49.838;8.650;2022-08-19T21:03:23;99583.63;;;23.38;43.13
43119;BME280;28729;49.838;8.650;2022-08-19T21:07:25;99584.38;;;23.27;43.66
43119;BME280;28729;49.838;8.650;2022-08-19T21:11:40;99582.63;;;23.13;44.09
43119;BME280;28729;49.838;8.650;2022-08-19T21:15:42;99585.81;;;23.03;44.48
43119;BME280;28729;49.838;8.650;2022-08-19T21:19:45;99592.13;;;22.91;44.65
43119;BME280;28729;49.838;8.650;2022-08-19T21:23:47;99590.84;;;22.80;45.63
43119;BME280;28729;49.838;8.650;2022-08-19T21:27:50;99588.09;;;22.63;46.60
43119;BME280;28729;49.838;8.650;2022-08-19T21:31:58;99591.16;;;22.49;47.27
43119;BME280;28729;49.838;8.650;2022-08-19T21:36:03;99593.31;;;22.35;48.07
43119;BME280;28729;49.838;8.650;2022-08-19T21:40:06;99598.28;;;22.20;48.89
43119;BME280;28729;49.838;8.650;2022-08-19T21:44:08;99597.78;;;22.10;49.13
43119;BME280;28729;49.838;8.650;2022-08-19T21:48:10;99603.75;;;21.99;49.31